Briefing drone pour Sassenage

Rechercher une autre localisation

Conditions de vol :


Nous sommes le : Dimanche 19 septembre 2021
Il est 01:32 UTC (03:32 LT)

Lever de soleil : 04:54 UTC (06:54 LT)
Coucher de soleil : 18:07 UTC (20:07 LT)

Météo

L'essentiel des conditions de vol

VIGILANCE MÉTÉO FRANCE - Isère (38)
Vigilance Jaune : Orages
CARTE TEMSI
CARTES DES FRONTS
METAR de LFLS
LFLS 190100Z AUTO VRB03KT 7000 RA FEW022/// SCT028/// BKN070/// ///CB 13/12 Q1016

Date d'émission: 19/09/2021
Heure d'émission: 01:00 UTC
Vent: Variable 3 KT (6 km/h)
Visibilité horizontale: 7000 m
Plafond :
- Peu de nuages à 2200ft (671m)
- Nuages épars à 2800ft (853m)
- Nuages morcelés à 7000ft (2134m)
Température: 13 °C
Point de rosée: 12 °C
Humidité: 94%
Pression (QNH): 1016 hPa
Conditions: Pluie
TAF de LFLS
LFLS 181900Z 1819/1915 CNL

Conditions prévues :

Heure d'émission : Bulletin éffectué le 18 à 19:00 UTC
Prévision : Valide du 18 a 19:00 UTC au 19 a 15:00 UTC
Nuages : à 0ft (0 m)
WEBCAM POUR SASSENAGE

Réglementation

Voler en sécurité

CARTES AERONAUTIQUE 1/500.000
CARTES VAC (LFLS)
SUP AIP




Chargement des AIP...
NOTAM (SASSENAGE + Terrain à proximité / FIR )




Chargement des NOTAMS...
CONTACT PREFECTURE 38


Avertissement : Les données mises à disposition sont indicatives. Oxygène Drone ne pourra être tenu responsable de dégâts causés aux biens et aux personnes.